sensor_id;sensor_type;location;lat;lon;timestamp;P1;durP1;ratioP1;P2;durP2;ratioP2
46675;SDS011;32412;51.478;5.694;2023-06-14T00:01:41;9.70;;;6.40;;
46675;SDS011;32412;51.478;5.694;2023-06-14T00:04:10;9.45;;;6.65;;
46675;SDS011;32412;51.478;5.694;2023-06-14T00:06:36;8.45;;;5.95;;
46675;SDS011;32412;51.478;5.694;2023-06-14T00:09:03;11.13;;;6.20;;
46675;SDS011;32412;51.478;5.694;2023-06-14T00:11:29;9.40;;;6.35;;
46675;SDS011;32412;51.478;5.694;2023-06-14T00:14:00;9.07;;;6.43;;
46675;SDS011;32412;51.478;5.694;2023-06-14T00:16:27;10.45;;;6.25;;
46675;SDS011;32412;51.478;5.694;2023-06-14T00:18:53;10.10;;;5.90;;
46675;SDS011;32412;51.478;5.694;2023-06-14T00:21:19;9.73;;;6.25;;
46675;SDS011;32412;51.478;5.694;2023-06-14T00:23:44;10.50;;;6.00;;
46675;SDS011;32412;51.478;5.694;2023-06-14T00:26:10;9.57;;;6.45;;
46675;SDS011;32412;51.478;5.694;2023-06-14T00:28:36;12.07;;;6.63;;
46675;SDS011;32412;51.478;5.694;2023-06-14T00:31:01;11.60;;;5.85;;
46675;SDS011;32412;51.478;5.694;2023-06-14T00:33:27;8.00;;;6.15;;
46675;SDS011;32412;51.478;5.694;2023-06-14T00:35:53;8.13;;;6.15;;
46675;SDS011;32412;51.478;5.694;2023-06-14T00:38:19;7.75;;;5.40;;
46675;SDS011;32412;51.478;5.694;2023-06-14T00:40:46;7.22;;;5.70;;
46675;SDS011;32412;51.478;5.694;2023-06-14T00:43:11;9.90;;;6.07;;
46675;SDS011;32412;51.478;5.694;2023-06-14T00:45:37;9.30;;;6.00;;
46675;SDS011;32412;51.478;5.694;2023-06-14T00:48:04;7.82;;;5.90;;
46675;SDS011;32412;51.478;5.694;2023-06-14T00:50:31;10.13;;;6.00;;
46675;SDS011;32412;51.478;5.694;2023-06-14T00:52:58;7.15;;;5.60;;
46675;SDS011;32412;51.478;5.694;2023-06-14T00:55:25;9.70;;;6.18;;
46675;SDS011;32412;51.478;5.694;2023-06-14T00:57:52;8.95;;;5.57;;
46675;SDS011;32412;51.478;5.694;2023-06-14T01:00:19;6.07;;;5.40;;
46675;SDS011;32412;51.478;5.694;2023-06-14T01:02:45;8.40;;;6.00;;
46675;SDS011;32412;51.478;5.694;2023-06-14T01:05:10;9.73;;;5.68;;
46675;SDS011;32412;51.478;5.694;2023-06-14T01:07:46;7.35;;;5.85;;
46675;SDS011;32412;51.478;5.694;2023-06-14T01:16:04;7.03;;;5.35;;
46675;SDS011;32412;51.478;5.694;2023-06-14T01:18:31;9.20;;;5.85;;
46675;SDS011;32412;51.478;5.694;2023-06-14T01:20:58;10.60;;;6.03;;
46675;SDS011;32412;51.478;5.694;2023-06-14T01:23:24;10.73;;;5.78;;
46675;SDS011;32412;51.478;5.694;2023-06-14T01:25:57;10.73;;;5.40;;
46675;SDS011;32412;51.478;5.694;2023-06-14T01:28:22;5.60;;;4.80;;
46675;SDS011;32412;51.478;5.694;2023-06-14T01:30:50;10.90;;;5.78;;
46675;SDS011;32412;51.478;5.694;2023-06-14T01:33:19;6.93;;;5.75;;
46675;SDS011;32412;51.478;5.694;2023-06-14T01:35:48;9.77;;;5.10;;
46675;SDS011;32412;51.478;5.694;2023-06-14T01:38:15;8.20;;;5.68;;
46675;SDS011;32412;51.478;5.694;2023-06-14T01:40:46;11.32;;;5.68;;
46675;SDS011;32412;51.478;5.694;2023-06-14T01:43:13;7.55;;;5.05;;
46675;SDS011;32412;51.478;5.694;2023-06-14T01:45:41;6.45;;;5.10;;
46675;SDS011;32412;51.478;5.694;2023-06-14T01:48:08;6.68;;;5.18;;
46675;SDS011;32412;51.478;5.694;2023-06-14T01:50:34;6.85;;;5.03;;
46675;SDS011;32412;51.478;5.694;2023-06-14T01:53:00;9.15;;;5.47;;
46675;SDS011;32412;51.478;5.694;2023-06-14T01:55:26;6.90;;;5.32;;
46675;SDS011;32412;51.478;5.694;2023-06-14T01:57:52;8.40;;;5.25;;
46675;SDS011;32412;51.478;5.694;2023-06-14T02:00:19;8.52;;;4.97;;
46675;SDS011;32412;51.478;5.694;2023-06-14T02:02:46;7.78;;;5.20;;
46675;SDS011;32412;51.478;5.694;2023-06-14T02:05:12;10.10;;;5.03;;
46675;SDS011;32412;51.478;5.694;2023-06-14T02:07:37;6.90;;;4.40;;
46675;SDS011;32412;51.478;5.694;2023-06-14T02:10:03;6.15;;;4.43;;
46675;SDS011;32412;51.478;5.694;2023-06-14T02:12:30;7.38;;;5.10;;
46675;SDS011;32412;51.478;5.694;2023-06-14T02:14:55;9.32;;;4.95;;
46675;SDS011;32412;51.478;5.694;2023-06-14T02:17:21;7.88;;;5.10;;
46675;SDS011;32412;51.478;5.694;2023-06-14T02:19:48;5.90;;;4.63;;
46675;SDS011;32412;51.478;5.694;2023-06-14T02:22:14;8.13;;;4.28;;
46675;SDS011;32412;51.478;5.694;2023-06-14T02:24:40;7.80;;;4.75;;
46675;SDS011;32412;51.478;5.694;2023-06-14T02:27:06;16.05;;;4.72;;
46675;SDS011;32412;51.478;5.694;2023-06-14T02:29:33;8.38;;;4.22;;
46675;SDS011;32412;51.478;5.694;2023-06-14T02:31:59;7.40;;;4.32;;
46675;SDS011;32412;51.478;5.694;2023-06-14T02:34:24;6.97;;;4.68;;
46675;SDS011;32412;51.478;5.694;2023-06-14T02:36:50;7.40;;;4.13;;
46675;SDS011;32412;51.478;5.694;2023-06-14T02:39:17;7.63;;;4.93;;
46675;SDS011;32412;51.478;5.694;2023-06-14T02:41:45;5.50;;;4.30;;
46675;SDS011;32412;51.478;5.694;2023-06-14T02:44:13;6.93;;;4.05;;
46675;SDS011;32412;51.478;5.694;2023-06-14T02:46:38;7.70;;;4.28;;
46675;SDS011;32412;51.478;5.694;2023-06-14T02:49:04;6.90;;;4.13;;
46675;SDS011;32412;51.478;5.694;2023-06-14T02:51:30;10.40;;;4.40;;
46675;SDS011;32412;51.478;5.694;2023-06-14T02:53:56;7.03;;;4.13;;
46675;SDS011;32412;51.478;5.694;2023-06-14T02:56:21;5.80;;;3.97;;
46675;SDS011;32412;51.478;5.694;2023-06-14T02:58:47;5.38;;;4.18;;
46675;SDS011;32412;51.478;5.694;2023-06-14T03:01:13;6.15;;;4.32;;
46675;SDS011;32412;51.478;5.694;2023-06-14T03:03:39;5.95;;;4.38;;
46675;SDS011;32412;51.478;5.694;2023-06-14T03:06:05;7.03;;;4.20;;
46675;SDS011;32412;51.478;5.694;2023-06-14T03:08:33;6.63;;;4.53;;
46675;SDS011;32412;51.478;5.694;2023-06-14T03:11:03;5.82;;;4.53;;
46675;SDS011;32412;51.478;5.694;2023-06-14T03:13:30;5.05;;;4.13;;
46675;SDS011;32412;51.478;5.694;2023-06-14T03:15:59;7.53;;;3.90;;
46675;SDS011;32412;51.478;5.694;2023-06-14T03:18:27;4.63;;;3.95;;
46675;SDS011;32412;51.478;5.694;2023-06-14T03:20:55;7.88;;;4.20;;
46675;SDS011;32412;51.478;5.694;2023-06-14T03:23:23;9.18;;;4.50;;
46675;SDS011;32412;51.478;5.694;2023-06-14T03:25:50;5.18;;;4.10;;
46675;SDS011;32412;51.478;5.694;2023-06-14T03:28:16;7.78;;;3.92;;
46675;SDS011;32412;51.478;5.694;2023-06-14T03:30:42;8.15;;;4.13;;
46675;SDS011;32412;51.478;5.694;2023-06-14T03:33:08;5.90;;;4.35;;
46675;SDS011;32412;51.478;5.694;2023-06-14T03:35:34;6.40;;;4.72;;
46675;SDS011;32412;51.478;5.694;2023-06-14T03:38:00;5.10;;;4.57;;
46675;SDS011;32412;51.478;5.694;2023-06-14T03:40:27;5.78;;;4.22;;
46675;SDS011;32412;51.478;5.694;2023-06-14T03:42:53;5.82;;;4.30;;
46675;SDS011;32412;51.478;5.694;2023-06-14T03:45:19;6.38;;;4.22;;
46675;SDS011;32412;51.478;5.694;2023-06-14T03:47:45;6.45;;;4.47;;
46675;SDS011;32412;51.478;5.694;2023-06-14T03:50:11;8.68;;;4.43;;
46675;SDS011;32412;51.478;5.694;2023-06-14T03:52:37;7.28;;;4.90;;
46675;SDS011;32412;51.478;5.694;2023-06-14T03:55:03;6.43;;;4.25;;
46675;SDS011;32412;51.478;5.694;2023-06-14T03:57:29;6.18;;;4.60;;
46675;SDS011;32412;51.478;5.694;2023-06-14T03:59:55;6.53;;;3.95;;
46675;SDS011;32412;51.478;5.694;2023-06-14T04:02:21;4.97;;;4.20;;
46675;SDS011;32412;51.478;5.694;2023-06-14T04:04:47;6.90;;;4.18;;
46675;SDS011;32412;51.478;5.694;2023-06-14T04:07:16;7.45;;;4.13;;
46675;SDS011;32412;51.478;5.694;2023-06-14T04:09:45;7.20;;;4.35;;
46675;SDS011;32412;51.478;5.694;2023-06-14T04:12:11;7.03;;;4.43;;
46675;SDS011;32412;51.478;5.694;2023-06-14T04:14:37;8.35;;;4.28;;
46675;SDS011;32412;51.478;5.694;2023-06-14T04:17:04;7.22;;;4.78;;
46675;SDS011;32412;51.478;5.694;2023-06-14T04:19:30;11.18;;;4.72;;
46675;SDS011;32412;51.478;5.694;2023-06-14T04:21:55;6.63;;;4.10;;
46675;SDS011;32412;51.478;5.694;2023-06-14T04:24:22;6.18;;;3.92;;
46675;SDS011;32412;51.478;5.694;2023-06-14T04:26:48;12.20;;;4.80;;
46675;SDS011;32412;51.478;5.694;2023-06-14T04:29:14;6.00;;;4.47;;
46675;SDS011;32412;51.478;5.694;2023-06-14T04:31:41;6.93;;;4.20;;
46675;SDS011;32412;51.478;5.694;2023-06-14T04:34:08;5.45;;;4.07;;
46675;SDS011;32412;51.478;5.694;2023-06-14T04:36:34;8.32;;;4.75;;
46675;SDS011;32412;51.478;5.694;2023-06-14T04:39:02;7.50;;;4.43;;
46675;SDS011;32412;51.478;5.694;2023-06-14T04:41:29;7.72;;;3.92;;
46675;SDS011;32412;51.478;5.694;2023-06-14T04:43:55;5.68;;;4.45;;
46675;SDS011;32412;51.478;5.694;2023-06-14T04:46:23;8.02;;;4.20;;
46675;SDS011;32412;51.478;5.694;2023-06-14T04:48:49;6.63;;;4.40;;
46675;SDS011;32412;51.478;5.694;2023-06-14T04:51:15;7.30;;;4.57;;
46675;SDS011;32412;51.478;5.694;2023-06-14T04:53:41;7.55;;;4.35;;
46675;SDS011;32412;51.478;5.694;2023-06-14T04:56:08;10.30;;;3.92;;
46675;SDS011;32412;51.478;5.694;2023-06-14T04:58:36;5.93;;;4.63;;
46675;SDS011;32412;51.478;5.694;2023-06-14T05:01:03;8.05;;;4.60;;
46675;SDS011;32412;51.478;5.694;2023-06-14T05:03:29;15.90;;;4.90;;
46675;SDS011;32412;51.478;5.694;2023-06-14T05:05:55;11.38;;;4.68;;
46675;SDS011;32412;51.478;5.694;2023-06-14T05:08:21;8.73;;;4.85;;
46675;SDS011;32412;51.478;5.694;2023-06-14T05:10:50;8.80;;;4.80;;
46675;SDS011;32412;51.478;5.694;2023-06-14T05:13:17;8.75;;;5.00;;
46675;SDS011;32412;51.478;5.694;2023-06-14T05:15:43;7.93;;;4.75;;
46675;SDS011;32412;51.478;5.694;2023-06-14T05:18:09;7.60;;;4.78;;
46675;SDS011;32412;51.478;5.694;2023-06-14T05:20:35;6.78;;;4.45;;
46675;SDS011;32412;51.478;5.694;2023-06-14T05:23:02;8.07;;;4.68;;
46675;SDS011;32412;51.478;5.694;2023-06-14T05:25:28;9.10;;;4.72;;
46675;SDS011;32412;51.478;5.694;2023-06-14T05:27:54;5.28;;;4.43;;
46675;SDS011;32412;51.478;5.694;2023-06-14T05:30:19;10.85;;;4.57;;
46675;SDS011;32412;51.478;5.694;2023-06-14T05:32:45;6.57;;;3.80;;
46675;SDS011;32412;51.478;5.694;2023-06-14T05:35:11;5.68;;;4.38;;
46675;SDS011;32412;51.478;5.694;2023-06-14T05:37:36;8.68;;;4.82;;
46675;SDS011;32412;51.478;5.694;2023-06-14T05:40:03;6.07;;;4.30;;
46675;SDS011;32412;51.478;5.694;2023-06-14T05:42:30;9.57;;;4.53;;
46675;SDS011;32412;51.478;5.694;2023-06-14T05:44:56;8.98;;;4.40;;
46675;SDS011;32412;51.478;5.694;2023-06-14T05:47:22;7.70;;;4.28;;
46675;SDS011;32412;51.478;5.694;2023-06-14T05:49:48;7.68;;;4.50;;
46675;SDS011;32412;51.478;5.694;2023-06-14T05:52:13;7.60;;;4.25;;
46675;SDS011;32412;51.478;5.694;2023-06-14T05:54:39;8.98;;;3.80;;
46675;SDS011;32412;51.478;5.694;2023-06-14T05:57:06;9.55;;;4.03;;
46675;SDS011;32412;51.478;5.694;2023-06-14T05:59:32;5.97;;;4.00;;
46675;SDS011;32412;51.478;5.694;2023-06-14T06:01:58;6.72;;;4.00;;
46675;SDS011;32412;51.478;5.694;2023-06-14T06:04:23;7.55;;;4.40;;
46675;SDS011;32412;51.478;5.694;2023-06-14T06:06:49;7.63;;;4.18;;
46675;SDS011;32412;51.478;5.694;2023-06-14T06:09:15;9.02;;;4.45;;
46675;SDS011;32412;51.478;5.694;2023-06-14T06:11:40;7.35;;;3.88;;
46675;SDS011;32412;51.478;5.694;2023-06-14T06:14:06;6.00;;;3.72;;
46675;SDS011;32412;51.478;5.694;2023-06-14T06:16:32;6.00;;;4.15;;
46675;SDS011;32412;51.478;5.694;2023-06-14T06:18:58;5.10;;;3.88;;
46675;SDS011;32412;51.478;5.694;2023-06-14T06:21:24;14.77;;;4.95;;
46675;SDS011;32412;51.478;5.694;2023-06-14T06:23:50;7.43;;;3.50;;
46675;SDS011;32412;51.478;5.694;2023-06-14T06:26:15;4.60;;;3.53;;
46675;SDS011;32412;51.478;5.694;2023-06-14T06:28:41;7.10;;;4.15;;
46675;SDS011;32412;51.478;5.694;2023-06-14T06:31:07;6.93;;;4.00;;
46675;SDS011;32412;51.478;5.694;2023-06-14T06:33:32;7.20;;;3.72;;
46675;SDS011;32412;51.478;5.694;2023-06-14T06:35:58;5.25;;;3.63;;
46675;SDS011;32412;51.478;5.694;2023-06-14T06:38:24;5.40;;;3.40;;
46675;SDS011;32412;51.478;5.694;2023-06-14T06:40:50;6.47;;;3.35;;
46675;SDS011;32412;51.478;5.694;2023-06-14T06:43:15;7.95;;;3.88;;
46675;SDS011;32412;51.478;5.694;2023-06-14T06:45:42;5.05;;;3.70;;
46675;SDS011;32412;51.478;5.694;2023-06-14T06:48:08;5.65;;;3.53;;
46675;SDS011;32412;51.478;5.694;2023-06-14T06:50:37;9.85;;;3.50;;
46675;SDS011;32412;51.478;5.694;2023-06-14T06:53:03;5.53;;;3.58;;
46675;SDS011;32412;51.478;5.694;2023-06-14T06:55:29;6.90;;;3.88;;
46675;SDS011;32412;51.478;5.694;2023-06-14T06:57:55;10.27;;;3.92;;
46675;SDS011;32412;51.478;5.694;2023-06-14T07:00:21;5.75;;;3.75;;
46675;SDS011;32412;51.478;5.694;2023-06-14T07:02:47;8.48;;;3.65;;
46675;SDS011;32412;51.478;5.694;2023-06-14T07:05:12;6.22;;;3.55;;
46675;SDS011;32412;51.478;5.694;2023-06-14T07:07:38;6.90;;;3.58;;
46675;SDS011;32412;51.478;5.694;2023-06-14T07:10:04;7.57;;;4.20;;
46675;SDS011;32412;51.478;5.694;2023-06-14T07:12:31;8.77;;;3.88;;
46675;SDS011;32412;51.478;5.694;2023-06-14T07:14:58;8.77;;;4.13;;
46675;SDS011;32412;51.478;5.694;2023-06-14T07:17:25;7.75;;;3.67;;
46675;SDS011;32412;51.478;5.694;2023-06-14T07:19:50;5.45;;;3.30;;
46675;SDS011;32412;51.478;5.694;2023-06-14T07:22:16;9.82;;;3.90;;
46675;SDS011;32412;51.478;5.694;2023-06-14T07:24:42;9.85;;;3.75;;
46675;SDS011;32412;51.478;5.694;2023-06-14T07:27:08;12.23;;;3.90;;
46675;SDS011;32412;51.478;5.694;2023-06-14T07:29:34;7.80;;;3.53;;
46675;SDS011;32412;51.478;5.694;2023-06-14T07:32:00;8.50;;;3.40;;
46675;SDS011;32412;51.478;5.694;2023-06-14T07:34:25;7.82;;;3.78;;
46675;SDS011;32412;51.478;5.694;2023-06-14T07:36:52;4.72;;;3.45;;
46675;SDS011;32412;51.478;5.694;2023-06-14T07:39:19;8.68;;;3.53;;
46675;SDS011;32412;51.478;5.694;2023-06-14T07:41:44;6.47;;;3.47;;
46675;SDS011;32412;51.478;5.694;2023-06-14T07:44:10;13.43;;;3.25;;
46675;SDS011;32412;51.478;5.694;2023-06-14T07:46:37;7.38;;;2.97;;
46675;SDS011;32412;51.478;5.694;2023-06-14T07:49:03;11.68;;;3.47;;
46675;SDS011;32412;51.478;5.694;2023-06-14T07:51:29;6.93;;;3.60;;
46675;SDS011;32412;51.478;5.694;2023-06-14T07:53:54;8.18;;;3.30;;
46675;SDS011;32412;51.478;5.694;2023-06-14T07:56:21;5.30;;;3.03;;
46675;SDS011;32412;51.478;5.694;2023-06-14T07:58:46;5.97;;;2.92;;
46675;SDS011;32412;51.478;5.694;2023-06-14T08:01:12;3.08;;;2.70;;
46675;SDS011;32412;51.478;5.694;2023-06-14T08:03:38;10.60;;;3.55;;
46675;SDS011;32412;51.478;5.694;2023-06-14T08:06:04;3.28;;;2.20;;
46675;SDS011;32412;51.478;5.694;2023-06-14T08:08:30;8.45;;;2.60;;
46675;SDS011;32412;51.478;5.694;2023-06-14T08:10:55;7.82;;;2.67;;
46675;SDS011;32412;51.478;5.694;2023-06-14T08:13:21;6.47;;;2.10;;
46675;SDS011;32412;51.478;5.694;2023-06-14T08:15:47;5.18;;;2.45;;
46675;SDS011;32412;51.478;5.694;2023-06-14T08:18:12;5.88;;;2.72;;
46675;SDS011;32412;51.478;5.694;2023-06-14T08:20:38;3.83;;;2.78;;
46675;SDS011;32412;51.478;5.694;2023-06-14T08:23:05;5.35;;;2.25;;
46675;SDS011;32412;51.478;5.694;2023-06-14T08:25:31;2.97;;;2.20;;
46675;SDS011;32412;51.478;5.694;2023-06-14T08:27:56;3.42;;;2.35;;
46675;SDS011;32412;51.478;5.694;2023-06-14T08:30:22;4.78;;;2.30;;
46675;SDS011;32412;51.478;5.694;2023-06-14T08:32:48;7.43;;;2.78;;
46675;SDS011;32412;51.478;5.694;2023-06-14T08:35:14;5.07;;;2.78;;
46675;SDS011;32412;51.478;5.694;2023-06-14T08:37:40;4.95;;;2.30;;
46675;SDS011;32412;51.478;5.694;2023-06-14T08:40:18;6.22;;;2.00;;
46675;SDS011;32412;51.478;5.694;2023-06-14T08:42:46;5.55;;;2.30;;
46675;SDS011;32412;51.478;5.694;2023-06-14T08:45:17;4.90;;;1.90;;
46675;SDS011;32412;51.478;5.694;2023-06-14T08:47:45;1.92;;;1.80;;
46675;SDS011;32412;51.478;5.694;2023-06-14T08:50:16;5.43;;;1.92;;
46675;SDS011;32412;51.478;5.694;2023-06-14T08:52:42;2.63;;;1.77;;
46675;SDS011;32412;51.478;5.694;2023-06-14T08:55:15;2.42;;;1.67;;
46675;SDS011;32412;51.478;5.694;2023-06-14T08:57:42;1.80;;;1.70;;
46675;SDS011;32412;51.478;5.694;2023-06-14T09:00:09;4.50;;;1.73;;
46675;SDS011;32412;51.478;5.694;2023-06-14T09:02:38;3.53;;;1.90;;
46675;SDS011;32412;51.478;5.694;2023-06-14T09:05:09;4.15;;;1.67;;
46675;SDS011;32412;51.478;5.694;2023-06-14T09:07:35;3.10;;;1.08;;
46675;SDS011;32412;51.478;5.694;2023-06-14T09:10:10;4.25;;;1.20;;
46675;SDS011;32412;51.478;5.694;2023-06-14T09:12:37;1.60;;;1.20;;
46675;SDS011;32412;51.478;5.694;2023-06-14T09:15:04;2.92;;;1.35;;
46675;SDS011;32412;51.478;5.694;2023-06-14T09:17:38;3.60;;;1.27;;
46675;SDS011;32412;51.478;5.694;2023-06-14T09:20:04;1.90;;;1.00;;
46675;SDS011;32412;51.478;5.694;2023-06-14T09:22:31;1.92;;;1.05;;
46675;SDS011;32412;51.478;5.694;2023-06-14T09:24:58;2.35;;;1.02;;
46675;SDS011;32412;51.478;5.694;2023-06-14T09:27:28;1.70;;;1.17;;
46675;SDS011;32412;51.478;5.694;2023-06-14T09:29:54;2.90;;;1.45;;
46675;SDS011;32412;51.478;5.694;2023-06-14T09:32:20;1.50;;;1.40;;
46675;SDS011;32412;51.478;5.694;2023-06-14T09:34:47;1.00;;;1.00;;
46675;SDS011;32412;51.478;5.694;2023-06-14T09:37:17;4.47;;;1.27;;
46675;SDS011;32412;51.478;5.694;2023-06-14T09:39:54;3.30;;;1.40;;
46675;SDS011;32412;51.478;5.694;2023-06-14T09:42:20;3.70;;;1.60;;
46675;SDS011;32412;51.478;5.694;2023-06-14T09:44:49;1.70;;;1.52;;
46675;SDS011;32412;51.478;5.694;2023-06-14T09:47:15;1.38;;;1.10;;
46675;SDS011;32412;51.478;5.694;2023-06-14T09:49:41;2.45;;;1.50;;
46675;SDS011;32412;51.478;5.694;2023-06-14T09:52:12;3.85;;;1.48;;
46675;SDS011;32412;51.478;5.694;2023-06-14T09:54:41;2.00;;;1.63;;
46675;SDS011;32412;51.478;5.694;2023-06-14T09:57:09;2.17;;;1.48;;
46675;SDS011;32412;51.478;5.694;2023-06-14T09:59:43;3.50;;;1.25;;
46675;SDS011;32412;51.478;5.694;2023-06-14T10:05:06;5.35;;;1.80;;
46675;SDS011;32412;51.478;5.694;2023-06-14T10:07:41;2.40;;;1.48;;
46675;SDS011;32412;51.478;5.694;2023-06-14T10:10:18;2.25;;;1.77;;
46675;SDS011;32412;51.478;5.694;2023-06-14T10:12:44;2.47;;;1.58;;
46675;SDS011;32412;51.478;5.694;2023-06-14T10:15:13;4.10;;;1.48;;
46675;SDS011;32412;51.478;5.694;2023-06-14T10:22:55;1.83;;;1.58;;
46675;SDS011;32412;51.478;5.694;2023-06-14T10:25:30;2.60;;;1.70;;
46675;SDS011;32412;51.478;5.694;2023-06-14T10:28:30;2.05;;;1.45;;
46675;SDS011;32412;51.478;5.694;2023-06-14T10:31:03;3.33;;;1.65;;
46675;SDS011;32412;51.478;5.694;2023-06-14T10:33:30;3.33;;;1.40;;
46675;SDS011;32412;51.478;5.694;2023-06-14T10:36:42;1.70;;;1.60;;
46675;SDS011;32412;51.478;5.694;2023-06-14T10:39:16;2.15;;;1.33;;
46675;SDS011;32412;51.478;5.694;2023-06-14T10:41:50;1.67;;;1.58;;
46675;SDS011;32412;51.478;5.694;2023-06-14T10:46:54;1.42;;;1.30;;
46675;SDS011;32412;51.478;5.694;2023-06-14T10:52:12;5.03;;;1.50;;
46675;SDS011;32412;51.478;5.694;2023-06-14T10:57:30;3.42;;;1.60;;
46675;SDS011;32412;51.478;5.694;2023-06-14T10:59:59;2.10;;;1.50;;
46675;SDS011;32412;51.478;5.694;2023-06-14T11:05:03;2.25;;;1.33;;
46675;SDS011;32412;51.478;5.694;2023-06-14T11:13:02;2.03;;;1.50;;
46675;SDS011;32412;51.478;5.694;2023-06-14T11:15:32;2.72;;;1.30;;
46675;SDS011;32412;51.478;5.694;2023-06-14T11:18:00;5.85;;;1.60;;
46675;SDS011;32412;51.478;5.694;2023-06-14T11:20:29;7.10;;;1.60;;
46675;SDS011;32412;51.478;5.694;2023-06-14T11:22:56;3.05;;;1.77;;
46675;SDS011;32412;51.478;5.694;2023-06-14T11:25:22;1.60;;;1.23;;
46675;SDS011;32412;51.478;5.694;2023-06-14T11:27:49;3.90;;;1.42;;
46675;SDS011;32412;51.478;5.694;2023-06-14T11:30:16;2.05;;;1.38;;
46675;SDS011;32412;51.478;5.694;2023-06-14T11:32:42;3.42;;;2.17;;
46675;SDS011;32412;51.478;5.694;2023-06-14T11:35:11;1.70;;;1.40;;
46675;SDS011;32412;51.478;5.694;2023-06-14T11:37:36;4.50;;;1.40;;
46675;SDS011;32412;51.478;5.694;2023-06-14T11:40:03;2.42;;;1.55;;
46675;SDS011;32412;51.478;5.694;2023-06-14T11:42:34;2.10;;;1.33;;
46675;SDS011;32412;51.478;5.694;2023-06-14T11:45:01;1.77;;;1.45;;
46675;SDS011;32412;51.478;5.694;2023-06-14T11:47:35;2.70;;;1.63;;
46675;SDS011;32412;51.478;5.694;2023-06-14T11:50:01;3.03;;;1.52;;
46675;SDS011;32412;51.478;5.694;2023-06-14T11:52:28;3.30;;;1.50;;
46675;SDS011;32412;51.478;5.694;2023-06-14T11:54:53;2.80;;;2.08;;
46675;SDS011;32412;51.478;5.694;2023-06-14T11:57:22;2.90;;;1.50;;
46675;SDS011;32412;51.478;5.694;2023-06-14T11:59:48;4.72;;;1.80;;
46675;SDS011;32412;51.478;5.694;2023-06-14T12:02:14;4.45;;;2.45;;
46675;SDS011;32412;51.478;5.694;2023-06-14T12:04:44;4.38;;;1.70;;
46675;SDS011;32412;51.478;5.694;2023-06-14T12:07:13;2.97;;;1.40;;
46675;SDS011;32412;51.478;5.694;2023-06-14T12:09:42;1.80;;;1.70;;
46675;SDS011;32412;51.478;5.694;2023-06-14T12:12:30;2.78;;;1.58;;
46675;SDS011;32412;51.478;5.694;2023-06-14T12:14:56;4.38;;;1.35;;
46675;SDS011;32412;51.478;5.694;2023-06-14T12:17:21;1.67;;;1.55;;
46675;SDS011;32412;51.478;5.694;2023-06-14T12:19:48;1.85;;;1.52;;
46675;SDS011;32412;51.478;5.694;2023-06-14T12:22:15;4.07;;;1.40;;
46675;SDS011;32412;51.478;5.694;2023-06-14T12:24:44;3.50;;;1.48;;
46675;SDS011;32412;51.478;5.694;2023-06-14T12:27:11;4.90;;;1.55;;
46675;SDS011;32412;51.478;5.694;2023-06-14T12:29:43;1.92;;;1.33;;
46675;SDS011;32412;51.478;5.694;2023-06-14T12:32:09;2.03;;;1.33;;
46675;SDS011;32412;51.478;5.694;2023-06-14T12:34:35;2.65;;;1.40;;
46675;SDS011;32412;51.478;5.694;2023-06-14T12:37:01;2.50;;;1.55;;
46675;SDS011;32412;51.478;5.694;2023-06-14T12:39:29;1.80;;;1.50;;
46675;SDS011;32412;51.478;5.694;2023-06-14T12:41:56;2.30;;;1.17;;
46675;SDS011;32412;51.478;5.694;2023-06-14T12:44:22;1.27;;;1.17;;
46675;SDS011;32412;51.478;5.694;2023-06-14T12:46:48;2.35;;;1.30;;
46675;SDS011;32412;51.478;5.694;2023-06-14T12:49:16;4.93;;;1.50;;
46675;SDS011;32412;51.478;5.694;2023-06-14T12:51:42;1.52;;;1.42;;
46675;SDS011;32412;51.478;5.694;2023-06-14T12:54:07;2.42;;;1.80;;
46675;SDS011;32412;51.478;5.694;2023-06-14T12:56:33;1.88;;;1.45;;
46675;SDS011;32412;51.478;5.694;2023-06-14T12:58:59;3.85;;;1.75;;
46675;SDS011;32412;51.478;5.694;2023-06-14T13:01:25;3.08;;;1.40;;
46675;SDS011;32412;51.478;5.694;2023-06-14T13:03:51;3.55;;;1.40;;
46675;SDS011;32412;51.478;5.694;2023-06-14T13:06:20;3.90;;;1.30;;
46675;SDS011;32412;51.478;5.694;2023-06-14T13:08:50;1.65;;;1.20;;
46675;SDS011;32412;51.478;5.694;2023-06-14T13:11:15;1.58;;;1.33;;
46675;SDS011;32412;51.478;5.694;2023-06-14T13:13:41;1.30;;;1.20;;
46675;SDS011;32412;51.478;5.694;2023-06-14T13:16:06;1.50;;;1.30;;
46675;SDS011;32412;51.478;5.694;2023-06-14T13:18:32;1.70;;;1.42;;
46675;SDS011;32412;51.478;5.694;2023-06-14T13:20:58;2.78;;;1.23;;
46675;SDS011;32412;51.478;5.694;2023-06-14T13:23:24;1.40;;;1.30;;
46675;SDS011;32412;51.478;5.694;2023-06-14T13:25:50;1.98;;;1.17;;
46675;SDS011;32412;51.478;5.694;2023-06-14T13:28:16;2.75;;;1.13;;
46675;SDS011;32412;51.478;5.694;2023-06-14T13:30:42;1.10;;;1.00;;
46675;SDS011;32412;51.478;5.694;2023-06-14T13:33:07;1.00;;;1.00;;
46675;SDS011;32412;51.478;5.694;2023-06-14T13:35:33;1.00;;;1.00;;
46675;SDS011;32412;51.478;5.694;2023-06-14T13:37:59;3.03;;;1.00;;
46675;SDS011;32412;51.478;5.694;2023-06-14T13:40:25;2.25;;;1.05;;
46675;SDS011;32412;51.478;5.694;2023-06-14T13:42:51;1.50;;;0.90;;
46675;SDS011;32412;51.478;5.694;2023-06-14T13:45:16;3.35;;;0.70;;
46675;SDS011;32412;51.478;5.694;2023-06-14T13:47:42;1.25;;;0.82;;
46675;SDS011;32412;51.478;5.694;2023-06-14T13:50:08;2.42;;;1.23;;
46675;SDS011;32412;51.478;5.694;2023-06-14T13:52:34;4.45;;;1.10;;
46675;SDS011;32412;51.478;5.694;2023-06-14T13:55:00;2.78;;;1.23;;
46675;SDS011;32412;51.478;5.694;2023-06-14T13:57:26;1.23;;;0.95;;
46675;SDS011;32412;51.478;5.694;2023-06-14T13:59:51;0.80;;;0.80;;
46675;SDS011;32412;51.478;5.694;2023-06-14T14:02:20;3.92;;;0.85;;
46675;SDS011;32412;51.478;5.694;2023-06-14T14:04:46;1.98;;;0.90;;
46675;SDS011;32412;51.478;5.694;2023-06-14T14:07:17;2.25;;;0.90;;
46675;SDS011;32412;51.478;5.694;2023-06-14T14:09:43;0.85;;;0.80;;
46675;SDS011;32412;51.478;5.694;2023-06-14T14:12:09;3.95;;;1.00;;
46675;SDS011;32412;51.478;5.694;2023-06-14T14:14:36;2.00;;;0.80;;
46675;SDS011;32412;51.478;5.694;2023-06-14T14:17:02;2.90;;;1.05;;
46675;SDS011;32412;51.478;5.694;2023-06-14T14:19:27;1.67;;;1.27;;
46675;SDS011;32412;51.478;5.694;2023-06-14T14:21:53;2.13;;;0.82;;
46675;SDS011;32412;51.478;5.694;2023-06-14T14:24:19;2.63;;;0.90;;
46675;SDS011;32412;51.478;5.694;2023-06-14T14:26:44;1.02;;;0.90;;
46675;SDS011;32412;51.478;5.694;2023-06-14T14:29:13;1.77;;;0.75;;
46675;SDS011;32412;51.478;5.694;2023-06-14T14:31:39;1.17;;;0.90;;
46675;SDS011;32412;51.478;5.694;2023-06-14T14:34:05;2.67;;;1.20;;
46675;SDS011;32412;51.478;5.694;2023-06-14T14:36:30;1.33;;;0.90;;
46675;SDS011;32412;51.478;5.694;2023-06-14T14:38:58;1.48;;;1.00;;
46675;SDS011;32412;51.478;5.694;2023-06-14T14:41:23;1.55;;;1.08;;
46675;SDS011;32412;51.478;5.694;2023-06-14T14:43:49;4.65;;;1.00;;
46675;SDS011;32412;51.478;5.694;2023-06-14T14:46:15;1.23;;;1.00;;
46675;SDS011;32412;51.478;5.694;2023-06-14T14:48:41;4.47;;;1.15;;
46675;SDS011;32412;51.478;5.694;2023-06-14T14:51:07;0.65;;;0.65;;
46675;SDS011;32412;51.478;5.694;2023-06-14T14:53:33;1.92;;;0.90;;
46675;SDS011;32412;51.478;5.694;2023-06-14T14:55:59;1.02;;;0.90;;
46675;SDS011;32412;51.478;5.694;2023-06-14T14:58:25;2.30;;;1.40;;
46675;SDS011;32412;51.478;5.694;2023-06-14T15:00:51;1.17;;;1.08;;
46675;SDS011;32412;51.478;5.694;2023-06-14T15:03:17;4.30;;;1.02;;
46675;SDS011;32412;51.478;5.694;2023-06-14T15:05:43;1.02;;;0.93;;
46675;SDS011;32412;51.478;5.694;2023-06-14T15:08:08;3.90;;;1.25;;
46675;SDS011;32412;51.478;5.694;2023-06-14T15:10:40;1.88;;;1.10;;
46675;SDS011;32412;51.478;5.694;2023-06-14T15:13:09;2.22;;;1.13;;
46675;SDS011;32412;51.478;5.694;2023-06-14T15:15:35;2.50;;;1.33;;